sensor_id;sensor_type;location;lat;lon;timestamp;temperature;humidity
37240;DHT22;23130;48.760;9.178;2024-01-11T00:01:46;-5.60;99.90
37240;DHT22;23130;48.760;9.178;2024-01-11T00:04:12;-5.60;99.90
37240;DHT22;23130;48.760;9.178;2024-01-11T00:06:44;-5.60;99.90
37240;DHT22;23130;48.760;9.178;2024-01-11T00:09:10;-5.60;99.90
37240;DHT22;23130;48.760;9.178;2024-01-11T00:11:35;-5.60;99.90
37240;DHT22;23130;48.760;9.178;2024-01-11T00:14:01;-5.60;99.90
37240;DHT22;23130;48.760;9.178;2024-01-11T00:16:26;-5.60;99.90
37240;DHT22;23130;48.760;9.178;2024-01-11T00:18:53;-5.70;99.90
37240;DHT22;23130;48.760;9.178;2024-01-11T00:21:19;-5.70;99.90
37240;DHT22;23130;48.760;9.178;2024-01-11T00:23:45;-5.70;99.90
37240;DHT22;23130;48.760;9.178;2024-01-11T00:26:14;-5.70;99.90
37240;DHT22;23130;48.760;9.178;2024-01-11T00:28:39;-5.70;99.90
37240;DHT22;23130;48.760;9.178;2024-01-11T00:31:05;-5.70;99.90
37240;DHT22;23130;48.760;9.178;2024-01-11T00:33:31;-5.70;99.90
37240;DHT22;23130;48.760;9.178;2024-01-11T00:35:57;-5.70;99.90
37240;DHT22;23130;48.760;9.178;2024-01-11T00:38:23;-5.60;99.90
37240;DHT22;23130;48.760;9.178;2024-01-11T00:40:48;-5.60;99.90
37240;DHT22;23130;48.760;9.178;2024-01-11T00:43:14;-5.60;99.90
37240;DHT22;23130;48.760;9.178;2024-01-11T00:45:40;-5.60;99.90
37240;DHT22;23130;48.760;9.178;2024-01-11T00:48:08;-5.50;99.90
37240;DHT22;23130;48.760;9.178;2024-01-11T00:50:34;-5.60;99.90
37240;DHT22;23130;48.760;9.178;2024-01-11T00:52:59;-5.60;99.90
37240;DHT22;23130;48.760;9.178;2024-01-11T00:55:26;-5.60;99.90
37240;DHT22;23130;48.760;9.178;2024-01-11T00:57:52;-5.70;99.90
37240;DHT22;23130;48.760;9.178;2024-01-11T01:00:17;-5.70;99.90
37240;DHT22;23130;48.760;9.178;2024-01-11T01:02:43;-5.70;99.90
37240;DHT22;23130;48.760;9.178;2024-01-11T01:05:08;-5.70;99.90
37240;DHT22;23130;48.760;9.178;2024-01-11T01:07:34;-5.80;99.90
37240;DHT22;23130;48.760;9.178;2024-01-11T01:10:00;-5.80;99.90
37240;DHT22;23130;48.760;9.178;2024-01-11T01:12:27;-5.70;99.90
37240;DHT22;23130;48.760;9.178;2024-01-11T01:14:54;-5.70;99.90
37240;DHT22;23130;48.760;9.178;2024-01-11T01:17:21;-5.80;99.90
37240;DHT22;23130;48.760;9.178;2024-01-11T01:19:47;-5.90;99.90
37240;DHT22;23130;48.760;9.178;2024-01-11T01:22:14;-5.90;99.90
37240;DHT22;23130;48.760;9.178;2024-01-11T01:24:39;-6.00;99.90
37240;DHT22;23130;48.760;9.178;2024-01-11T01:27:04;-6.00;99.90
37240;DHT22;23130;48.760;9.178;2024-01-11T01:29:30;-5.90;99.90
37240;DHT22;23130;48.760;9.178;2024-01-11T01:32:00;-6.00;99.90
37240;DHT22;23130;48.760;9.178;2024-01-11T01:34:27;-6.00;99.90
37240;DHT22;23130;48.760;9.178;2024-01-11T01:36:52;-5.90;99.90
37240;DHT22;23130;48.760;9.178;2024-01-11T01:39:18;-5.90;99.90
37240;DHT22;23130;48.760;9.178;2024-01-11T01:41:43;-5.90;99.90
37240;DHT22;23130;48.760;9.178;2024-01-11T01:44:08;-5.90;99.90
37240;DHT22;23130;48.760;9.178;2024-01-11T01:46:34;-5.70;99.90
37240;DHT22;23130;48.760;9.178;2024-01-11T01:48:59;-5.80;99.90
37240;DHT22;23130;48.760;9.178;2024-01-11T01:51:26;-5.80;99.90
37240;DHT22;23130;48.760;9.178;2024-01-11T01:53:54;-5.90;99.90
37240;DHT22;23130;48.760;9.178;2024-01-11T01:56:20;-5.90;99.90
37240;DHT22;23130;48.760;9.178;2024-01-11T01:58:45;-6.00;99.90
37240;DHT22;23130;48.760;9.178;2024-01-11T02:01:12;-5.90;99.90
37240;DHT22;23130;48.760;9.178;2024-01-11T02:03:38;-5.80;99.90
37240;DHT22;23130;48.760;9.178;2024-01-11T02:06:04;-5.90;99.90
37240;DHT22;23130;48.760;9.178;2024-01-11T02:08:31;-5.90;99.90
37240;DHT22;23130;48.760;9.178;2024-01-11T02:10:57;-5.90;99.90
37240;DHT22;23130;48.760;9.178;2024-01-11T02:13:24;-5.90;99.90
37240;DHT22;23130;48.760;9.178;2024-01-11T02:15:50;-5.90;99.90
37240;DHT22;23130;48.760;9.178;2024-01-11T02:18:15;-6.00;99.90
37240;DHT22;23130;48.760;9.178;2024-01-11T02:20:41;-5.90;99.90
37240;DHT22;23130;48.760;9.178;2024-01-11T02:23:07;-5.80;99.90
37240;DHT22;23130;48.760;9.178;2024-01-11T02:25:33;-5.80;99.90
37240;DHT22;23130;48.760;9.178;2024-01-11T02:27:58;-5.70;99.90
37240;DHT22;23130;48.760;9.178;2024-01-11T02:30:24;-5.70;99.90
37240;DHT22;23130;48.760;9.178;2024-01-11T02:32:50;-5.70;99.90
37240;DHT22;23130;48.760;9.178;2024-01-11T02:35:16;-5.70;99.90
37240;DHT22;23130;48.760;9.178;2024-01-11T02:37:41;-5.80;99.90
37240;DHT22;23130;48.760;9.178;2024-01-11T02:40:07;-5.80;99.90
37240;DHT22;23130;48.760;9.178;2024-01-11T02:42:34;-5.80;99.90
37240;DHT22;23130;48.760;9.178;2024-01-11T02:45:02;-5.90;99.90
37240;DHT22;23130;48.760;9.178;2024-01-11T02:47:28;-5.90;99.90
37240;DHT22;23130;48.760;9.178;2024-01-11T02:49:54;-5.90;99.90
37240;DHT22;23130;48.760;9.178;2024-01-11T02:52:19;-5.90;99.90
37240;DHT22;23130;48.760;9.178;2024-01-11T02:54:45;-5.90;99.90
37240;DHT22;23130;48.760;9.178;2024-01-11T02:57:10;-5.90;99.90
37240;DHT22;23130;48.760;9.178;2024-01-11T02:59:36;-6.00;99.90
37240;DHT22;23130;48.760;9.178;2024-01-11T03:02:04;-6.00;99.90
37240;DHT22;23130;48.760;9.178;2024-01-11T03:04:29;-6.00;99.90
37240;DHT22;23130;48.760;9.178;2024-01-11T03:06:56;-6.00;99.90
37240;DHT22;23130;48.760;9.178;2024-01-11T03:09:21;-6.00;99.90
37240;DHT22;23130;48.760;9.178;2024-01-11T03:11:47;-6.00;99.90
37240;DHT22;23130;48.760;9.178;2024-01-11T03:14:12;-6.00;99.90
37240;DHT22;23130;48.760;9.178;2024-01-11T03:16:38;-6.00;99.90
37240;DHT22;23130;48.760;9.178;2024-01-11T03:19:05;-6.00;99.90
37240;DHT22;23130;48.760;9.178;2024-01-11T03:21:32;-6.10;99.90
37240;DHT22;23130;48.760;9.178;2024-01-11T03:23:59;-6.10;99.90
37240;DHT22;23130;48.760;9.178;2024-01-11T03:26:25;-6.10;99.90
37240;DHT22;23130;48.760;9.178;2024-01-11T03:28:50;-6.20;99.90
37240;DHT22;23130;48.760;9.178;2024-01-11T03:31:16;-6.20;99.90
37240;DHT22;23130;48.760;9.178;2024-01-11T03:33:41;-6.20;99.90
37240;DHT22;23130;48.760;9.178;2024-01-11T03:36:10;-6.20;99.90
37240;DHT22;23130;48.760;9.178;2024-01-11T03:38:36;-6.20;99.90
37240;DHT22;23130;48.760;9.178;2024-01-11T03:41:07;-6.30;99.90
37240;DHT22;23130;48.760;9.178;2024-01-11T03:43:32;-6.30;99.90
37240;DHT22;23130;48.760;9.178;2024-01-11T03:45:58;-6.40;99.90
37240;DHT22;23130;48.760;9.178;2024-01-11T03:48:23;-6.50;99.90
37240;DHT22;23130;48.760;9.178;2024-01-11T03:50:49;-6.50;99.90
37240;DHT22;23130;48.760;9.178;2024-01-11T03:53:15;-6.40;99.90
37240;DHT22;23130;48.760;9.178;2024-01-11T03:55:40;-6.40;99.90
37240;DHT22;23130;48.760;9.178;2024-01-11T03:58:06;-6.40;99.90
37240;DHT22;23130;48.760;9.178;2024-01-11T04:00:32;-6.40;99.90
37240;DHT22;23130;48.760;9.178;2024-01-11T04:02:58;-6.40;99.90
37240;DHT22;23130;48.760;9.178;2024-01-11T04:05:24;-6.40;99.90
37240;DHT22;23130;48.760;9.178;2024-01-11T04:07:49;-6.40;99.90
37240;DHT22;23130;48.760;9.178;2024-01-11T04:10:17;-6.40;99.90
37240;DHT22;23130;48.760;9.178;2024-01-11T04:12:42;-6.50;99.90
37240;DHT22;23130;48.760;9.178;2024-01-11T04:15:08;-6.50;99.90
37240;DHT22;23130;48.760;9.178;2024-01-11T04:17:35;-6.50;99.90
37240;DHT22;23130;48.760;9.178;2024-01-11T04:20:00;-6.50;99.90
37240;DHT22;23130;48.760;9.178;2024-01-11T04:22:27;-6.50;99.90
37240;DHT22;23130;48.760;9.178;2024-01-11T04:24:53;-6.50;99.90
37240;DHT22;23130;48.760;9.178;2024-01-11T04:27:18;-6.40;99.90
37240;DHT22;23130;48.760;9.178;2024-01-11T04:29:44;-6.50;99.90
37240;DHT22;23130;48.760;9.178;2024-01-11T04:32:09;-6.50;99.90
37240;DHT22;23130;48.760;9.178;2024-01-11T04:34:35;-6.50;99.90
37240;DHT22;23130;48.760;9.178;2024-01-11T04:37:00;-6.50;99.90
37240;DHT22;23130;48.760;9.178;2024-01-11T04:39:25;-6.50;99.90
37240;DHT22;23130;48.760;9.178;2024-01-11T04:41:51;-6.50;99.90
37240;DHT22;23130;48.760;9.178;2024-01-11T04:44:16;-6.50;99.90
37240;DHT22;23130;48.760;9.178;2024-01-11T04:46:43;-6.60;99.90
37240;DHT22;23130;48.760;9.178;2024-01-11T04:49:08;-6.60;99.90
37240;DHT22;23130;48.760;9.178;2024-01-11T04:51:34;-6.60;99.90
37240;DHT22;23130;48.760;9.178;2024-01-11T04:53:59;-6.50;99.90
37240;DHT22;23130;48.760;9.178;2024-01-11T04:56:26;-6.50;99.90
37240;DHT22;23130;48.760;9.178;2024-01-11T04:58:51;-6.50;99.90
37240;DHT22;23130;48.760;9.178;2024-01-11T05:01:17;-6.60;99.90
37240;DHT22;23130;48.760;9.178;2024-01-11T05:03:43;-6.60;99.90
37240;DHT22;23130;48.760;9.178;2024-01-11T05:06:17;-6.60;99.90
37240;DHT22;23130;48.760;9.178;2024-01-11T05:08:43;-6.70;99.90
37240;DHT22;23130;48.760;9.178;2024-01-11T05:11:14;-6.70;99.90
37240;DHT22;23130;48.760;9.178;2024-01-11T05:13:41;-6.80;99.90
37240;DHT22;23130;48.760;9.178;2024-01-11T05:16:06;-6.80;99.90
37240;DHT22;23130;48.760;9.178;2024-01-11T05:18:32;-6.80;99.90
37240;DHT22;23130;48.760;9.178;2024-01-11T05:20:57;-6.80;99.90
37240;DHT22;23130;48.760;9.178;2024-01-11T05:23:23;-6.70;99.90
37240;DHT22;23130;48.760;9.178;2024-01-11T05:25:48;-6.70;99.90
37240;DHT22;23130;48.760;9.178;2024-01-11T05:28:14;-6.70;99.90
37240;DHT22;23130;48.760;9.178;2024-01-11T05:30:39;-6.70;99.90
37240;DHT22;23130;48.760;9.178;2024-01-11T05:33:06;-6.70;99.90
37240;DHT22;23130;48.760;9.178;2024-01-11T05:35:31;-6.70;99.90
37240;DHT22;23130;48.760;9.178;2024-01-11T05:38:03;-6.80;99.90
37240;DHT22;23130;48.760;9.178;2024-01-11T05:40:28;-6.80;99.90
37240;DHT22;23130;48.760;9.178;2024-01-11T05:42:55;-6.80;99.90
37240;DHT22;23130;48.760;9.178;2024-01-11T05:45:20;-6.70;99.90
37240;DHT22;23130;48.760;9.178;2024-01-11T05:47:47;-6.80;99.90
37240;DHT22;23130;48.760;9.178;2024-01-11T05:50:12;-6.80;99.90
37240;DHT22;23130;48.760;9.178;2024-01-11T05:52:38;-6.80;99.90
37240;DHT22;23130;48.760;9.178;2024-01-11T05:55:03;-6.70;99.90
37240;DHT22;23130;48.760;9.178;2024-01-11T05:57:31;-6.70;99.90
37240;DHT22;23130;48.760;9.178;2024-01-11T05:59:56;-6.70;99.90
37240;DHT22;23130;48.760;9.178;2024-01-11T06:02:23;-6.70;99.90
37240;DHT22;23130;48.760;9.178;2024-01-11T06:04:49;-6.70;99.90
37240;DHT22;23130;48.760;9.178;2024-01-11T06:07:15;-6.80;99.90
37240;DHT22;23130;48.760;9.178;2024-01-11T06:09:40;-6.80;99.90
37240;DHT22;23130;48.760;9.178;2024-01-11T06:12:05;-6.70;99.90
37240;DHT22;23130;48.760;9.178;2024-01-11T06:14:31;-6.80;99.90
37240;DHT22;23130;48.760;9.178;2024-01-11T06:16:56;-6.80;99.90
37240;DHT22;23130;48.760;9.178;2024-01-11T06:19:22;-6.80;99.90
37240;DHT22;23130;48.760;9.178;2024-01-11T06:21:51;-6.80;99.90
37240;DHT22;23130;48.760;9.178;2024-01-11T06:24:16;-6.80;99.90
37240;DHT22;23130;48.760;9.178;2024-01-11T06:26:42;-6.80;99.90
37240;DHT22;23130;48.760;9.178;2024-01-11T06:29:07;-6.80;99.90
37240;DHT22;23130;48.760;9.178;2024-01-11T06:31:33;-6.80;99.90
37240;DHT22;23130;48.760;9.178;2024-01-11T06:34:00;-6.80;99.90
37240;DHT22;23130;48.760;9.178;2024-01-11T06:36:26;-6.80;99.90
37240;DHT22;23130;48.760;9.178;2024-01-11T06:38:51;-6.80;99.90
37240;DHT22;23130;48.760;9.178;2024-01-11T06:41:16;-6.80;99.90
37240;DHT22;23130;48.760;9.178;2024-01-11T06:43:42;-6.80;99.90
37240;DHT22;23130;48.760;9.178;2024-01-11T06:46:08;-6.80;99.90
37240;DHT22;23130;48.760;9.178;2024-01-11T06:48:35;-6.80;99.90
37240;DHT22;23130;48.760;9.178;2024-01-11T06:51:00;-6.80;99.90
37240;DHT22;23130;48.760;9.178;2024-01-11T06:53:26;-6.80;99.90
37240;DHT22;23130;48.760;9.178;2024-01-11T06:55:51;-6.80;99.90
37240;DHT22;23130;48.760;9.178;2024-01-11T06:58:20;-6.90;99.90
37240;DHT22;23130;48.760;9.178;2024-01-11T07:00:46;-6.90;99.90
37240;DHT22;23130;48.760;9.178;2024-01-11T07:03:11;-6.90;99.90
37240;DHT22;23130;48.760;9.178;2024-01-11T07:05:38;-6.90;99.90
37240;DHT22;23130;48.760;9.178;2024-01-11T07:08:04;-6.90;99.90
37240;DHT22;23130;48.760;9.178;2024-01-11T07:10:29;-6.90;99.90
37240;DHT22;23130;48.760;9.178;2024-01-11T07:12:55;-6.90;99.90
37240;DHT22;23130;48.760;9.178;2024-01-11T07:15:20;-6.90;99.90
37240;DHT22;23130;48.760;9.178;2024-01-11T07:17:46;-6.80;99.90
37240;DHT22;23130;48.760;9.178;2024-01-11T07:20:11;-6.80;99.90
37240;DHT22;23130;48.760;9.178;2024-01-11T07:22:38;-6.80;99.90
37240;DHT22;23130;48.760;9.178;2024-01-11T07:25:03;-6.70;99.90
37240;DHT22;23130;48.760;9.178;2024-01-11T07:27:29;-6.70;99.90
37240;DHT22;23130;48.760;9.178;2024-01-11T07:29:55;-6.70;99.90
37240;DHT22;23130;48.760;9.178;2024-01-11T07:32:20;-6.60;99.90
37240;DHT22;23130;48.760;9.178;2024-01-11T07:34:46;-6.60;99.90
37240;DHT22;23130;48.760;9.178;2024-01-11T07:37:11;-6.60;99.90
37240;DHT22;23130;48.760;9.178;2024-01-11T07:39:37;-6.60;99.90
37240;DHT22;23130;48.760;9.178;2024-01-11T07:42:04;-6.50;99.90
37240;DHT22;23130;48.760;9.178;2024-01-11T07:44:31;-6.40;99.90
37240;DHT22;23130;48.760;9.178;2024-01-11T07:46:56;-6.40;99.90
37240;DHT22;23130;48.760;9.178;2024-01-11T07:49:22;-6.30;99.90
37240;DHT22;23130;48.760;9.178;2024-01-11T07:51:47;-6.30;99.90
37240;DHT22;23130;48.760;9.178;2024-01-11T07:54:13;-6.30;99.90
37240;DHT22;23130;48.760;9.178;2024-01-11T07:56:39;-6.20;99.90
37240;DHT22;23130;48.760;9.178;2024-01-11T07:59:05;-6.20;99.90
37240;DHT22;23130;48.760;9.178;2024-01-11T08:01:31;-6.10;99.90
37240;DHT22;23130;48.760;9.178;2024-01-11T08:03:56;-6.00;99.90
37240;DHT22;23130;48.760;9.178;2024-01-11T08:06:22;-5.90;99.90
37240;DHT22;23130;48.760;9.178;2024-01-11T08:08:47;-5.80;99.90
37240;DHT22;23130;48.760;9.178;2024-01-11T08:11:17;-5.80;99.90
37240;DHT22;23130;48.760;9.178;2024-01-11T08:13:44;-5.80;99.90
37240;DHT22;23130;48.760;9.178;2024-01-11T08:16:14;-5.70;99.90
37240;DHT22;23130;48.760;9.178;2024-01-11T08:18:40;-5.60;99.90
37240;DHT22;23130;48.760;9.178;2024-01-11T08:21:06;-5.60;99.90
37240;DHT22;23130;48.760;9.178;2024-01-11T08:23:35;-5.50;99.90
37240;DHT22;23130;48.760;9.178;2024-01-11T08:26:00;-5.40;99.90
37240;DHT22;23130;48.760;9.178;2024-01-11T08:28:26;-5.40;99.90
37240;DHT22;23130;48.760;9.178;2024-01-11T08:30:51;-5.40;99.90
37240;DHT22;23130;48.760;9.178;2024-01-11T08:33:16;-5.30;99.90
37240;DHT22;23130;48.760;9.178;2024-01-11T08:35:43;-5.30;99.90
37240;DHT22;23130;48.760;9.178;2024-01-11T08:38:09;-5.30;99.90
37240;DHT22;23130;48.760;9.178;2024-01-11T08:40:34;-5.20;99.90
37240;DHT22;23130;48.760;9.178;2024-01-11T08:43:00;-5.20;99.90
37240;DHT22;23130;48.760;9.178;2024-01-11T08:45:26;-5.10;99.90
37240;DHT22;23130;48.760;9.178;2024-01-11T08:47:52;-5.20;99.90
37240;DHT22;23130;48.760;9.178;2024-01-11T08:50:18;-5.10;99.90
37240;DHT22;23130;48.760;9.178;2024-01-11T08:52:43;-5.10;99.90
37240;DHT22;23130;48.760;9.178;2024-01-11T08:55:09;-5.10;99.90
37240;DHT22;23130;48.760;9.178;2024-01-11T08:57:35;-5.10;99.90
37240;DHT22;23130;48.760;9.178;2024-01-11T09:00:03;-5.00;99.90
37240;DHT22;23130;48.760;9.178;2024-01-11T09:02:29;-5.00;99.90
37240;DHT22;23130;48.760;9.178;2024-01-11T09:04:55;-5.00;99.90
37240;DHT22;23130;48.760;9.178;2024-01-11T09:07:20;-4.90;99.90
37240;DHT22;23130;48.760;9.178;2024-01-11T09:09:46;-4.90;99.90
37240;DHT22;23130;48.760;9.178;2024-01-11T09:12:12;-4.90;99.90
37240;DHT22;23130;48.760;9.178;2024-01-11T09:14:38;-4.90;99.90
37240;DHT22;23130;48.760;9.178;2024-01-11T09:17:04;-4.80;99.90
37240;DHT22;23130;48.760;9.178;2024-01-11T09:19:32;-4.80;99.90
37240;DHT22;23130;48.760;9.178;2024-01-11T09:21:59;-4.80;99.90
37240;DHT22;23130;48.760;9.178;2024-01-11T09:24:24;-4.80;99.90
37240;DHT22;23130;48.760;9.178;2024-01-11T09:26:52;-4.70;99.90
37240;DHT22;23130;48.760;9.178;2024-01-11T09:29:17;-4.80;99.90
37240;DHT22;23130;48.760;9.178;2024-01-11T09:31:43;-4.70;99.90
37240;DHT22;23130;48.760;9.178;2024-01-11T09:34:12;-4.70;99.90
37240;DHT22;23130;48.760;9.178;2024-01-11T09:36:37;-4.70;99.90
37240;DHT22;23130;48.760;9.178;2024-01-11T09:39:04;-4.60;99.90
37240;DHT22;23130;48.760;9.178;2024-01-11T09:41:31;-4.60;99.90
37240;DHT22;23130;48.760;9.178;2024-01-11T09:43:58;-4.60;99.90
37240;DHT22;23130;48.760;9.178;2024-01-11T09:46:25;-4.50;99.90
37240;DHT22;23130;48.760;9.178;2024-01-11T09:48:52;-4.50;99.90
37240;DHT22;23130;48.760;9.178;2024-01-11T09:51:18;-4.40;99.90
37240;DHT22;23130;48.760;9.178;2024-01-11T09:53:44;-4.40;99.90
37240;DHT22;23130;48.760;9.178;2024-01-11T09:56:10;-4.30;99.90
37240;DHT22;23130;48.760;9.178;2024-01-11T09:58:35;-4.30;99.90
37240;DHT22;23130;48.760;9.178;2024-01-11T10:01:14;-4.20;99.90
37240;DHT22;23130;48.760;9.178;2024-01-11T10:03:43;-4.20;99.90
37240;DHT22;23130;48.760;9.178;2024-01-11T10:06:08;-4.20;99.90
37240;DHT22;23130;48.760;9.178;2024-01-11T10:08:35;-4.10;99.90
37240;DHT22;23130;48.760;9.178;2024-01-11T10:11:01;-4.10;99.90
37240;DHT22;23130;48.760;9.178;2024-01-11T10:13:27;-4.10;99.90
37240;DHT22;23130;48.760;9.178;2024-01-11T10:16:03;-4.00;99.90
37240;DHT22;23130;48.760;9.178;2024-01-11T10:18:30;-4.00;99.90
37240;DHT22;23130;48.760;9.178;2024-01-11T10:20:56;-4.00;99.90
37240;DHT22;23130;48.760;9.178;2024-01-11T10:23:22;-3.90;99.90
37240;DHT22;23130;48.760;9.178;2024-01-11T10:25:48;-3.90;99.90
37240;DHT22;23130;48.760;9.178;2024-01-11T10:28:13;-3.90;99.90
37240;DHT22;23130;48.760;9.178;2024-01-11T10:30:40;-3.80;99.90
37240;DHT22;23130;48.760;9.178;2024-01-11T10:33:06;-3.80;99.90
37240;DHT22;23130;48.760;9.178;2024-01-11T10:35:32;-3.70;99.90
37240;DHT22;23130;48.760;9.178;2024-01-11T10:37:59;-3.70;99.90
37240;DHT22;23130;48.760;9.178;2024-01-11T10:40:25;-3.70;99.90
37240;DHT22;23130;48.760;9.178;2024-01-11T10:42:51;-3.60;99.90
37240;DHT22;23130;48.760;9.178;2024-01-11T10:45:17;-3.60;99.90
37240;DHT22;23130;48.760;9.178;2024-01-11T10:47:47;-3.60;99.90
37240;DHT22;23130;48.760;9.178;2024-01-11T10:50:13;-3.50;99.90
37240;DHT22;23130;48.760;9.178;2024-01-11T10:52:41;-3.50;99.90
37240;DHT22;23130;48.760;9.178;2024-01-11T10:55:08;-3.40;99.90
37240;DHT22;23130;48.760;9.178;2024-01-11T10:57:34;-3.40;99.90
37240;DHT22;23130;48.760;9.178;2024-01-11T10:59:59;-3.30;99.90
37240;DHT22;23130;48.760;9.178;2024-01-11T11:02:28;-3.30;99.90
37240;DHT22;23130;48.760;9.178;2024-01-11T11:04:53;-3.20;99.90
37240;DHT22;23130;48.760;9.178;2024-01-11T11:07:21;-3.10;99.90
37240;DHT22;23130;48.760;9.178;2024-01-11T11:09:49;-3.10;99.90
37240;DHT22;23130;48.760;9.178;2024-01-11T11:12:14;-3.00;99.90
37240;DHT22;23130;48.760;9.178;2024-01-11T11:14:43;-3.00;99.90
37240;DHT22;23130;48.760;9.178;2024-01-11T11:17:09;-2.90;99.90
37240;DHT22;23130;48.760;9.178;2024-01-11T11:19:36;-2.80;99.90
37240;DHT22;23130;48.760;9.178;2024-01-11T11:22:03;-2.80;99.90
37240;DHT22;23130;48.760;9.178;2024-01-11T11:24:30;-2.70;99.90
37240;DHT22;23130;48.760;9.178;2024-01-11T11:26:55;-2.70;99.90
37240;DHT22;23130;48.760;9.178;2024-01-11T11:29:22;-2.60;99.90
37240;DHT22;23130;48.760;9.178;2024-01-11T11:31:48;-2.60;99.90
37240;DHT22;23130;48.760;9.178;2024-01-11T11:34:39;-2.50;99.90
37240;DHT22;23130;48.760;9.178;2024-01-11T11:37:05;-2.50;99.90
37240;DHT22;23130;48.760;9.178;2024-01-11T11:39:31;-2.40;99.90
37240;DHT22;23130;48.760;9.178;2024-01-11T11:41:57;-2.40;99.90
37240;DHT22;23130;48.760;9.178;2024-01-11T11:44:24;-2.30;99.90
37240;DHT22;23130;48.760;9.178;2024-01-11T11:46:49;-2.30;99.90
37240;DHT22;23130;48.760;9.178;2024-01-11T11:49:15;-2.30;99.90
37240;DHT22;23130;48.760;9.178;2024-01-11T11:51:42;-2.20;99.90
37240;DHT22;23130;48.760;9.178;2024-01-11T11:54:09;-2.20;99.90
37240;DHT22;23130;48.760;9.178;2024-01-11T11:56:35;-2.10;99.90
37240;DHT22;23130;48.760;9.178;2024-01-11T11:59:01;-2.10;99.90
37240;DHT22;23130;48.760;9.178;2024-01-11T12:01:28;-2.00;99.90
37240;DHT22;23130;48.760;9.178;2024-01-11T12:03:54;-2.00;99.90
37240;DHT22;23130;48.760;9.178;2024-01-11T12:06:21;-1.90;99.90
37240;DHT22;23130;48.760;9.178;2024-01-11T12:08:50;-1.80;99.90
37240;DHT22;23130;48.760;9.178;2024-01-11T12:11:21;-1.80;99.90
37240;DHT22;23130;48.760;9.178;2024-01-11T12:13:48;-1.70;99.90
37240;DHT22;23130;48.760;9.178;2024-01-11T12:16:15;-1.70;99.90
37240;DHT22;23130;48.760;9.178;2024-01-11T12:18:41;-1.60;99.90
37240;DHT22;23130;48.760;9.178;2024-01-11T12:21:09;-1.50;99.90
37240;DHT22;23130;48.760;9.178;2024-01-11T12:23:36;-1.50;99.90
37240;DHT22;23130;48.760;9.178;2024-01-11T12:26:03;-1.40;99.90
37240;DHT22;23130;48.760;9.178;2024-01-11T12:28:32;-1.40;99.90
37240;DHT22;23130;48.760;9.178;2024-01-11T12:30:58;-1.30;99.90
37240;DHT22;23130;48.760;9.178;2024-01-11T12:33:24;-1.30;99.90
37240;DHT22;23130;48.760;9.178;2024-01-11T12:35:50;-1.20;99.90
37240;DHT22;23130;48.760;9.178;2024-01-11T12:38:17;-1.20;99.90
37240;DHT22;23130;48.760;9.178;2024-01-11T12:40:43;-1.20;99.90
37240;DHT22;23130;48.760;9.178;2024-01-11T12:43:08;-1.10;99.90
37240;DHT22;23130;48.760;9.178;2024-01-11T12:45:34;-1.10;99.90
37240;DHT22;23130;48.760;9.178;2024-01-11T12:48:00;-1.10;99.90
37240;DHT22;23130;48.760;9.178;2024-01-11T12:50:27;-1.00;99.90
37240;DHT22;23130;48.760;9.178;2024-01-11T12:55:33;-1.00;99.90
37240;DHT22;23130;48.760;9.178;2024-01-11T12:58:06;-1.00;99.90
37240;DHT22;23130;48.760;9.178;2024-01-11T13:00:31;-1.00;99.90
37240;DHT22;23130;48.760;9.178;2024-01-11T13:02:57;-1.00;99.90
37240;DHT22;23130;48.760;9.178;2024-01-11T13:05:23;-0.90;99.90
37240;DHT22;23130;48.760;9.178;2024-01-11T13:07:48;-0.90;99.90
37240;DHT22;23130;48.760;9.178;2024-01-11T13:10:14;-0.90;99.90
37240;DHT22;23130;48.760;9.178;2024-01-11T13:12:40;-0.90;99.90
37240;DHT22;23130;48.760;9.178;2024-01-11T13:15:05;-0.90;99.90
37240;DHT22;23130;48.760;9.178;2024-01-11T13:17:31;-0.90;99.90
37240;DHT22;23130;48.760;9.178;2024-01-11T13:19:56;-0.90;99.90
37240;DHT22;23130;48.760;9.178;2024-01-11T13:22:23;-0.80;99.90
37240;DHT22;23130;48.760;9.178;2024-01-11T13:24:48;-0.80;99.90
37240;DHT22;23130;48.760;9.178;2024-01-11T13:27:14;-0.80;99.90
37240;DHT22;23130;48.760;9.178;2024-01-11T13:29:40;-0.80;99.90
37240;DHT22;23130;48.760;9.178;2024-01-11T13:32:05;-0.80;99.90
37240;DHT22;23130;48.760;9.178;2024-01-11T13:34:31;-0.80;99.90
37240;DHT22;23130;48.760;9.178;2024-01-11T13:36:56;-0.80;99.90
37240;DHT22;23130;48.760;9.178;2024-01-11T13:39:24;-0.70;99.90
37240;DHT22;23130;48.760;9.178;2024-01-11T13:41:50;-0.80;99.90
37240;DHT22;23130;48.760;9.178;2024-01-11T13:44:16;-0.80;99.90
37240;DHT22;23130;48.760;9.178;2024-01-11T13:46:41;-0.80;99.90
37240;DHT22;23130;48.760;9.178;2024-01-11T13:49:09;-0.80;99.90
37240;DHT22;23130;48.760;9.178;2024-01-11T13:51:35;-0.80;99.90
37240;DHT22;23130;48.760;9.178;2024-01-11T13:54:02;-0.80;99.90
37240;DHT22;23130;48.760;9.178;2024-01-11T13:56:28;-0.80;99.90
37240;DHT22;23130;48.760;9.178;2024-01-11T13:58:54;-0.80;99.90
37240;DHT22;23130;48.760;9.178;2024-01-11T14:01:20;-0.80;99.90
37240;DHT22;23130;48.760;9.178;2024-01-11T14:03:45;-0.80;99.90
37240;DHT22;23130;48.760;9.178;2024-01-11T14:06:11;-0.80;99.90
37240;DHT22;23130;48.760;9.178;2024-01-11T14:08:39;-0.80;99.90
37240;DHT22;23130;48.760;9.178;2024-01-11T14:11:06;-0.80;99.90
37240;DHT22;23130;48.760;9.178;2024-01-11T14:13:31;-0.90;99.90
37240;DHT22;23130;48.760;9.178;2024-01-11T14:15:57;-0.90;99.90
37240;DHT22;23130;48.760;9.178;2024-01-11T14:18:22;-0.90;99.90
37240;DHT22;23130;48.760;9.178;2024-01-11T14:20:49;-0.90;99.90
37240;DHT22;23130;48.760;9.178;2024-01-11T14:23:15;-0.90;99.90
37240;DHT22;23130;48.760;9.178;2024-01-11T14:25:40;-0.90;99.90
37240;DHT22;23130;48.760;9.178;2024-01-11T14:28:06;-0.90;99.90
37240;DHT22;23130;48.760;9.178;2024-01-11T14:30:31;-0.90;99.90
37240;DHT22;23130;48.760;9.178;2024-01-11T14:32:58;-0.90;99.90
37240;DHT22;23130;48.760;9.178;2024-01-11T14:35:23;-0.90;99.90
37240;DHT22;23130;48.760;9.178;2024-01-11T14:37:49;-1.00;99.90
37240;DHT22;23130;48.760;9.178;2024-01-11T14:40:14;-1.00;99.90
37240;DHT22;23130;48.760;9.178;2024-01-11T14:42:40;-1.00;99.90
37240;DHT22;23130;48.760;9.178;2024-01-11T14:45:06;-1.00;99.90
37240;DHT22;23130;48.760;9.178;2024-01-11T14:47:33;-1.00;99.90
37240;DHT22;23130;48.760;9.178;2024-01-11T14:49:59;-1.00;99.90
37240;DHT22;23130;48.760;9.178;2024-01-11T14:52:25;-1.00;99.90
37240;DHT22;23130;48.760;9.178;2024-01-11T14:54:51;-1.00;99.90
37240;DHT22;23130;48.760;9.178;2024-01-11T14:57:16;-1.10;99.90
37240;DHT22;23130;48.760;9.178;2024-01-11T14:59:43;-1.10;99.90
37240;DHT22;23130;48.760;9.178;2024-01-11T15:02:10;-1.20;99.90
37240;DHT22;23130;48.760;9.178;2024-01-11T15:04:37;-1.20;99.90
37240;DHT22;23130;48.760;9.178;2024-01-11T15:07:04;-1.30;99.90
37240;DHT22;23130;48.760;9.178;2024-01-11T15:09:30;-1.30;99.90
37240;DHT22;23130;48.760;9.178;2024-01-11T15:11:55;-1.40;99.90
37240;DHT22;23130;48.760;9.178;2024-01-11T15:14:21;-1.40;99.90
37240;DHT22;23130;48.760;9.178;2024-01-11T15:16:48;-1.50;99.90
37240;DHT22;23130;48.760;9.178;2024-01-11T15:19:13;-1.60;99.90
37240;DHT22;23130;48.760;9.178;2024-01-11T15:21:39;-1.70;99.90
37240;DHT22;23130;48.760;9.178;2024-01-11T15:24:05;-1.80;99.90
37240;DHT22;23130;48.760;9.178;2024-01-11T15:26:30;-1.90;99.90